Time;durP1;ratioP1;P1;durP2;ratioP2;P2;SDS_P1;SDS_P2;PMS_P1;PMS_P2;Temp;Humidity;BMP_temperature;BMP_pressure;BME280_temperature;BME280_humidity;BME280_pressure;Samples;Min_cycle;Max_cycle;Signal;HPM_P1;HPM_P2
2022/03/11 00:01:52;;;;;;;;;;;5.90;99.90;;;;;;5075468;28;19908;-56
2022/03/11 00:04:17;;;;;;;;;;;5.90;99.90;;;;;;5075808;28;20000;-56
2022/03/11 00:06:43;;;;;;;;;;;5.90;99.90;;;;;;5075995;28;19916;-56
2022/03/11 00:09:08;;;;;;;;;;;5.90;99.90;;;;;;5075255;28;19962;-56
2022/03/11 00:11:34;;;;;;;;;;;5.80;99.90;;;;;;5076887;28;20493;-56
2022/03/11 00:14:00;;;;;;;;;;;5.80;99.90;;;;;;5075646;28;19920;-56
2022/03/11 00:16:26;;;;;;;;;;;5.80;99.90;;;;;;5075101;28;19915;-56
2022/03/11 00:18:52;;;;;;;;;;;5.80;99.90;;;;;;5075518;28;19909;-56
2022/03/11 00:21:17;;;;;;;;;;;5.80;99.90;;;;;;5075497;28;19916;-56
2022/03/11 00:23:43;;;;;;;;;;;5.70;99.90;;;;;;5075247;28;19908;-56
2022/03/11 00:26:09;;;;;;;;;;;5.70;99.90;;;;;;5075500;28;19947;-56
2022/03/11 00:28:35;;;;;;;;;;;5.70;99.90;;;;;;5075175;28;20018;-56
2022/03/11 00:31:01;;;;;;;;;;;5.70;99.90;;;;;;5080018;28;20000;-56
2022/03/11 00:33:26;;;;;;;;;;;5.70;99.90;;;;;;5095250;28;19924;-56
2022/03/11 00:35:51;;;;;;;;;;;5.60;99.90;;;;;;5095052;28;19908;-56
2022/03/11 00:38:17;;;;;;;;;;;5.60;99.90;;;;;;5095373;28;19909;-55
2022/03/11 00:40:42;;;;;;;;;;;5.60;99.90;;;;;;5095388;28;19908;-56
2022/03/11 00:43:08;;;;;;;;;;;5.60;99.90;;;;;;5094802;28;19914;-56
2022/03/11 00:45:33;;;;;;;;;;;5.60;99.90;;;;;;5095243;28;20351;-56
2022/03/11 00:47:59;;;;;;;;;;;5.60;99.90;;;;;;5094854;28;19912;-56
2022/03/11 00:50:24;;;;;;;;;;;5.60;99.90;;;;;;5094575;28;20011;-56
2022/03/11 00:52:50;;;;;;;;;;;5.50;99.90;;;;;;5095131;28;19939;-56
2022/03/11 00:55:16;;;;;;;;;;;5.50;99.90;;;;;;5095130;28;19908;-56
2022/03/11 00:57:41;;;;;;;;;;;5.50;99.90;;;;;;5094633;28;19908;-56
2022/03/11 01:00:07;;;;;;;;;;;5.60;99.90;;;;;;5095081;28;19994;-56
2022/03/11 01:02:34;;;;;;;;;;;5.50;99.90;;;;;;5076832;28;19948;-56
2022/03/11 01:04:59;;;;;;;;;;;5.50;99.90;;;;;;5074177;28;19916;-56
2022/03/11 01:07:25;;;;;;;;;;;5.50;99.90;;;;;;5075492;28;19913;-56
2022/03/11 01:09:50;;;;;;;;;;;5.50;99.90;;;;;;5074651;28;19920;-56
2022/03/11 01:12:16;;;;;;;;;;;5.50;99.90;;;;;;5074047;28;19912;-56
2022/03/11 01:14:41;;;;;;;;;;;5.50;99.90;;;;;;5074527;28;19909;-56
2022/03/11 01:17:06;;;;;;;;;;;5.50;99.90;;;;;;5074348;28;19915;-56
2022/03/11 01:19:32;;;;;;;;;;;5.50;99.90;;;;;;5084421;28;20012;-56
2022/03/11 01:21:58;;;;;;;;;;;5.50;99.90;;;;;;5094584;28;19931;-56
2022/03/11 01:24:23;;;;;;;;;;;5.50;99.90;;;;;;5094353;28;19909;-56
2022/03/11 01:26:48;;;;;;;;;;;5.40;99.90;;;;;;5094078;28;19961;-56
2022/03/11 01:29:14;;;;;;;;;;;5.40;99.90;;;;;;5094327;28;20030;-56
2022/03/11 01:31:39;;;;;;;;;;;5.40;99.90;;;;;;5084133;28;19912;-56
2022/03/11 01:34:05;;;;;;;;;;;5.30;99.90;;;;;;5073241;28;19920;-56
2022/03/11 01:36:30;;;;;;;;;;;5.40;99.90;;;;;;5074168;28;19909;-56
2022/03/11 01:38:56;;;;;;;;;;;5.30;99.90;;;;;;5074601;28;19913;-56
2022/03/11 01:41:22;;;;;;;;;;;5.30;99.90;;;;;;5073927;28;19955;-56
2022/03/11 01:43:50;;;;;;;;;;;5.30;99.90;;;;;;5073419;28;19914;-56
2022/03/11 01:46:15;;;;;;;;;;;5.30;99.90;;;;;;5073318;28;20358;-55
2022/03/11 01:48:41;;;;;;;;;;;5.20;99.90;;;;;;5073764;28;19924;-56
2022/03/11 01:51:06;;;;;;;;;;;5.20;99.90;;;;;;5073725;28;20313;-56
2022/03/11 01:53:32;;;;;;;;;;;5.20;99.90;;;;;;5073347;28;19931;-56
2022/03/11 01:55:57;;;;;;;;;;;5.20;99.90;;;;;;5073777;28;19908;-56
2022/03/11 01:58:23;;;;;;;;;;;5.20;99.90;;;;;;5073393;28;19908;-56
2022/03/11 02:00:48;;;;;;;;;;;5.10;99.90;;;;;;5075655;28;19912;-56
2022/03/11 02:03:14;;;;;;;;;;;5.10;99.90;;;;;;5093955;28;20385;-56
2022/03/11 02:05:39;;;;;;;;;;;5.10;99.90;;;;;;5093958;28;19912;-56
2022/03/11 02:08:05;;;;;;;;;;;5.10;99.90;;;;;;5093201;28;19938;-56
2022/03/11 02:10:30;;;;;;;;;;;5.10;99.90;;;;;;5093376;28;19917;-56
2022/03/11 02:12:57;;;;;;;;;;;5.10;99.90;;;;;;5093874;28;19909;-56
2022/03/11 02:15:23;;;;;;;;;;;5.10;99.90;;;;;;5092822;28;19943;-56
2022/03/11 02:17:49;;;;;;;;;;;5.10;99.90;;;;;;5093609;28;20427;-56
2022/03/11 02:20:14;;;;;;;;;;;5.10;99.90;;;;;;5093617;28;19952;-56
2022/03/11 02:22:40;;;;;;;;;;;5.00;99.90;;;;;;5093200;28;19983;-56
2022/03/11 02:25:07;;;;;;;;;;;5.00;99.90;;;;;;5093605;28;20385;-56
2022/03/11 02:27:38;;;;;;;;;;;5.00;99.90;;;;;;5093430;28;19923;-56
2022/03/11 02:30:11;;;;;;;;;;;5.00;99.90;;;;;;5092910;28;20580;-56
2022/03/11 02:32:36;;;;;;;;;;;5.00;99.90;;;;;;5084545;28;19974;-56
2022/03/11 02:35:01;;;;;;;;;;;5.00;99.90;;;;;;5091456;28;20386;-56
2022/03/11 02:37:27;;;;;;;;;;;4.90;99.90;;;;;;5092961;28;20404;-56
2022/03/11 02:39:55;;;;;;;;;;;4.90;99.90;;;;;;5093470;28;19914;-56
2022/03/11 02:42:20;;;;;;;;;;;4.90;99.90;;;;;;5092892;28;20397;-56
2022/03/11 02:44:46;;;;;;;;;;;4.90;99.90;;;;;;5093363;28;19951;-56
2022/03/11 02:47:11;;;;;;;;;;;4.90;99.90;;;;;;5093303;28;19908;-56
2022/03/11 02:49:37;;;;;;;;;;;4.80;99.90;;;;;;5092712;28;19923;-56
2022/03/11 02:52:02;;;;;;;;;;;4.80;99.90;;;;;;5093276;28;19908;-56
2022/03/11 02:54:28;;;;;;;;;;;4.80;99.90;;;;;;5094276;28;20007;-56
2022/03/11 02:56:53;;;;;;;;;;;4.80;99.90;;;;;;5096939;28;19915;-56
2022/03/11 02:59:19;;;;;;;;;;;4.80;99.90;;;;;;5097323;28;19916;-56
2022/03/11 03:01:44;;;;;;;;;;;4.70;99.90;;;;;;5084519;28;19912;-56
2022/03/11 03:04:11;;;;;;;;;;;4.70;99.90;;;;;;5076351;28;19920;-56
2022/03/11 03:06:36;;;;;;;;;;;4.70;99.90;;;;;;5076975;28;19912;-56
2022/03/11 03:09:02;;;;;;;;;;;4.70;99.90;;;;;;5076839;28;20058;-56
2022/03/11 03:11:27;;;;;;;;;;;4.70;99.90;;;;;;5076389;28;19989;-56
2022/03/11 03:13:53;;;;;;;;;;;4.60;99.90;;;;;;5076449;28;19997;-56
2022/03/11 03:16:18;;;;;;;;;;;4.60;99.90;;;;;;5076840;28;19908;-56
2022/03/11 03:18:44;;;;;;;;;;;4.50;99.90;;;;;;5076227;28;19931;-56
2022/03/11 03:21:09;;;;;;;;;;;4.50;99.90;;;;;;5076484;28;19909;-56
2022/03/11 03:23:35;;;;;;;;;;;4.50;99.90;;;;;;5076722;28;20279;-56
2022/03/11 03:26:01;;;;;;;;;;;4.50;99.90;;;;;;5076057;28;19919;-56
2022/03/11 03:28:27;;;;;;;;;;;4.50;99.90;;;;;;5076460;28;20286;-56
2022/03/11 03:30:52;;;;;;;;;;;4.50;99.90;;;;;;5080301;28;20373;-56
2022/03/11 03:33:18;;;;;;;;;;;4.40;99.90;;;;;;5095530;28;19974;-56
2022/03/11 03:35:43;;;;;;;;;;;4.40;99.90;;;;;;5096813;28;19919;-56
2022/03/11 03:38:09;;;;;;;;;;;4.40;99.90;;;;;;5096636;28;19914;-56
2022/03/11 03:40:35;;;;;;;;;;;4.40;99.90;;;;;;5096108;28;19915;-56
2022/03/11 03:43:00;;;;;;;;;;;4.40;99.90;;;;;;5096421;28;19915;-56
2022/03/11 03:45:26;;;;;;;;;;;4.30;99.90;;;;;;5096456;28;19977;-56
2022/03/11 03:47:51;;;;;;;;;;;4.30;99.90;;;;;;5095902;28;19952;-56
2022/03/11 03:50:17;;;;;;;;;;;4.30;99.90;;;;;;5096416;28;19935;-56
2022/03/11 03:52:42;;;;;;;;;;;4.30;99.90;;;;;;5095752;28;19931;-56
2022/03/11 03:55:08;;;;;;;;;;;4.30;99.90;;;;;;5096208;28;19916;-56
2022/03/11 03:57:34;;;;;;;;;;;4.30;99.90;;;;;;5096129;28;19908;-56
2022/03/11 03:59:59;;;;;;;;;;;4.20;99.90;;;;;;5095355;28;19953;-56
2022/03/11 04:02:25;;;;;;;;;;;4.20;99.90;;;;;;5075906;28;19930;-56
2022/03/11 04:04:51;;;;;;;;;;;4.20;99.90;;;;;;5075416;28;20026;-56
2022/03/11 04:07:16;;;;;;;;;;;4.10;99.90;;;;;;5075217;28;19908;-56
2022/03/11 04:09:42;;;;;;;;;;;4.10;99.90;;;;;;5075851;28;19923;-56
2022/03/11 04:12:09;;;;;;;;;;;4.10;99.90;;;;;;5075714;28;19914;-56
2022/03/11 04:14:34;;;;;;;;;;;4.10;99.90;;;;;;5075139;28;19908;-56
2022/03/11 04:17:00;;;;;;;;;;;4.00;99.90;;;;;;5075738;28;19908;-56
2022/03/11 04:19:25;;;;;;;;;;;4.00;99.90;;;;;;5075651;28;19908;-55
2022/03/11 04:21:51;;;;;;;;;;;4.00;99.90;;;;;;5092544;28;19913;-56
2022/03/11 04:24:17;;;;;;;;;;;4.00;99.90;;;;;;5095723;28;19996;-56
2022/03/11 04:26:45;;;;;;;;;;;3.90;99.90;;;;;;5095650;28;19908;-56
2022/03/11 04:29:11;;;;;;;;;;;4.00;99.90;;;;;;5095023;28;20405;-56
2022/03/11 04:31:37;;;;;;;;;;;3.90;99.90;;;;;;5095693;28;19908;-56
2022/03/11 04:34:04;;;;;;;;;;;3.90;99.90;;;;;;5095359;28;19927;-56
2022/03/11 04:36:32;;;;;;;;;;;3.90;99.90;;;;;;5094995;28;19916;-56
2022/03/11 04:38:59;;;;;;;;;;;3.90;99.90;;;;;;5095457;28;19908;-56
2022/03/11 04:41:24;;;;;;;;;;;3.90;99.90;;;;;;5093494;28;19969;-56
2022/03/11 04:43:50;;;;;;;;;;;3.90;99.90;;;;;;5094916;28;19955;-56
2022/03/11 04:46:15;;;;;;;;;;;3.80;99.90;;;;;;5095294;28;19908;-56
2022/03/11 04:48:43;;;;;;;;;;;3.80;99.90;;;;;;5088089;28;19924;-56
2022/03/11 04:51:09;;;;;;;;;;;3.80;99.90;;;;;;5085010;28;19912;-56
2022/03/11 04:53:34;;;;;;;;;;;3.80;99.90;;;;;;5095268;28;20278;-56
2022/03/11 04:55:59;;;;;;;;;;;3.80;99.90;;;;;;5094501;28;19908;-56
2022/03/11 04:58:25;;;;;;;;;;;3.70;99.90;;;;;;5095047;28;19951;-56
2022/03/11 05:00:51;;;;;;;;;;;3.70;99.90;;;;;;5081290;28;19916;-56
2022/03/11 05:03:16;;;;;;;;;;;3.70;99.90;;;;;;5074197;28;19910;-56
2022/03/11 05:05:41;;;;;;;;;;;3.70;99.90;;;;;;5074762;28;19908;-56
2022/03/11 05:08:07;;;;;;;;;;;3.60;99.90;;;;;;5074556;28;19920;-55
2022/03/11 05:10:33;;;;;;;;;;;3.60;99.90;;;;;;5074055;28;19908;-56
2022/03/11 05:12:58;;;;;;;;;;;3.60;99.90;;;;;;5073349;28;19919;-57
2022/03/11 05:15:24;;;;;;;;;;;3.60;99.90;;;;;;5074428;28;20264;-56
2022/03/11 05:17:50;;;;;;;;;;;3.50;99.90;;;;;;5072841;28;20305;-56
2022/03/11 05:20:15;;;;;;;;;;;3.50;99.90;;;;;;5084776;28;19954;-56
2022/03/11 05:22:42;;;;;;;;;;;3.50;99.90;;;;;;5094652;28;19908;-56
2022/03/11 05:25:08;;;;;;;;;;;3.50;99.90;;;;;;5093871;28;20019;-55
2022/03/11 05:27:34;;;;;;;;;;;3.50;99.90;;;;;;5094480;28;19955;-56
2022/03/11 05:29:59;;;;;;;;;;;3.40;99.90;;;;;;5094537;28;20003;-56
2022/03/11 05:32:25;;;;;;;;;;;3.40;99.90;;;;;;5093869;28;20382;-56
2022/03/11 05:34:51;;;;;;;;;;;3.40;99.90;;;;;;5094105;28;19924;-56
2022/03/11 05:37:16;;;;;;;;;;;3.40;99.90;;;;;;5094366;28;19959;-56
2022/03/11 05:39:42;;;;;;;;;;;3.40;99.90;;;;;;5085373;28;19908;-56
2022/03/11 05:42:07;;;;;;;;;;;3.40;99.90;;;;;;5073908;28;19912;-56
2022/03/11 05:44:34;;;;;;;;;;;3.40;99.90;;;;;;5073743;28;19908;-57
2022/03/11 05:46:59;;;;;;;;;;;3.30;99.90;;;;;;5073465;28;19927;-56
2022/03/11 05:49:25;;;;;;;;;;;3.30;99.90;;;;;;5073744;28;20030;-57
2022/03/11 05:51:51;;;;;;;;;;;3.30;99.90;;;;;;5073873;28;19913;-56
2022/03/11 05:54:17;;;;;;;;;;;3.30;99.90;;;;;;5073239;28;19951;-56
2022/03/11 05:56:43;;;;;;;;;;;3.30;99.90;;;;;;5073819;28;19963;-57
2022/03/11 05:59:08;;;;;;;;;;;3.20;99.90;;;;;;5074546;28;19943;-58
2022/03/11 06:01:34;;;;;;;;;;;3.30;99.90;;;;;;5073458;28;19966;-56
2022/03/11 06:04:01;;;;;;;;;;;3.20;99.90;;;;;;5073710;28;19914;-56
2022/03/11 06:06:27;;;;;;;;;;;3.20;99.90;;;;;;5073137;28;20010;-57
2022/03/11 06:08:53;;;;;;;;;;;3.20;99.90;;;;;;5073496;28;20010;-57
2022/03/11 06:11:18;;;;;;;;;;;3.20;99.90;;;;;;5073420;28;19909;-56
2022/03/11 06:13:44;;;;;;;;;;;3.20;99.90;;;;;;5073120;28;20300;-56
2022/03/11 06:16:09;;;;;;;;;;;3.20;99.90;;;;;;5073556;28;19908;-57
2022/03/11 06:18:35;;;;;;;;;;;3.20;99.90;;;;;;5073473;28;20351;-56
2022/03/11 06:21:00;;;;;;;;;;;3.20;99.90;;;;;;5072920;28;19963;-56
2022/03/11 06:23:25;;;;;;;;;;;3.20;99.90;;;;;;5073500;28;19908;-56
2022/03/11 06:25:51;;;;;;;;;;;3.20;99.90;;;;;;5073505;28;19908;-57
2022/03/11 06:28:16;;;;;;;;;;;3.30;99.90;;;;;;5072293;28;19912;-57
2022/03/11 06:30:45;;;;;;;;;;;3.20;99.90;;;;;;5090977;28;19909;-57
2022/03/11 06:33:10;;;;;;;;;;;3.30;99.90;;;;;;5092319;28;19974;-56
2022/03/11 06:35:36;;;;;;;;;;;3.30;99.90;;;;;;5085229;28;19913;-56
2022/03/11 06:38:01;;;;;;;;;;;3.30;99.90;;;;;;5095792;28;19907;-57
2022/03/11 06:40:27;;;;;;;;;;;3.30;99.90;;;;;;5112685;28;19960;-56
2022/03/11 06:42:54;;;;;;;;;;;3.40;99.90;;;;;;5085333;28;19928;-56
2022/03/11 06:45:19;;;;;;;;;;;3.40;99.90;;;;;;5092189;28;20451;-56
2022/03/11 06:47:46;;;;;;;;;;;3.40;99.90;;;;;;5092064;28;19908;-56
2022/03/11 06:50:12;;;;;;;;;;;3.40;99.90;;;;;;5091518;28;19920;-57
2022/03/11 06:52:37;;;;;;;;;;;3.50;99.90;;;;;;5094378;28;19912;-57
2022/03/11 06:55:03;;;;;;;;;;;3.50;99.90;;;;;;5091592;28;19908;-57
2022/03/11 06:57:28;;;;;;;;;;;3.50;99.90;;;;;;5091560;28;19963;-57
2022/03/11 06:59:54;;;;;;;;;;;3.50;99.90;;;;;;5091790;28;20371;-58
2022/03/11 07:02:19;;;;;;;;;;;3.60;99.90;;;;;;5092107;28;20347;-56
2022/03/11 07:04:45;;;;;;;;;;;3.70;99.90;;;;;;5092210;28;19931;-57
2022/03/11 07:07:11;;;;;;;;;;;3.70;99.90;;;;;;5092141;28;19918;-56
2022/03/11 07:09:36;;;;;;;;;;;3.80;99.90;;;;;;5092080;28;20394;-57
2022/03/11 07:12:03;;;;;;;;;;;3.80;99.90;;;;;;5082481;28;20255;-57
2022/03/11 07:14:29;;;;;;;;;;;3.90;99.90;;;;;;5072334;28;19915;-57
2022/03/11 07:16:56;;;;;;;;;;;3.90;99.90;;;;;;5071461;28;19954;-57
2022/03/11 07:19:22;;;;;;;;;;;4.00;99.90;;;;;;5072220;28;20374;-57
2022/03/11 07:21:48;;;;;;;;;;;4.10;99.90;;;;;;5072203;28;19909;-56
2022/03/11 07:24:13;;;;;;;;;;;4.10;99.90;;;;;;5077525;28;19912;-57
2022/03/11 07:26:39;;;;;;;;;;;4.20;99.90;;;;;;5092209;28;19912;-57
2022/03/11 07:29:05;;;;;;;;;;;4.30;99.90;;;;;;5092194;28;19923;-56
2022/03/11 07:31:30;;;;;;;;;;;4.30;99.90;;;;;;5091841;28;19915;-58
2022/03/11 07:33:56;;;;;;;;;;;4.40;99.90;;;;;;5078276;28;20333;-57
2022/03/11 07:36:22;;;;;;;;;;;4.40;99.90;;;;;;5073906;28;19943;-57
2022/03/11 07:38:48;;;;;;;;;;;4.50;99.90;;;;;;5083427;28;19927;-57
2022/03/11 07:41:17;;;;;;;;;;;4.60;99.90;;;;;;5083049;28;19912;-57
2022/03/11 07:43:44;;;;;;;;;;;4.70;99.90;;;;;;5089080;28;20593;-57
2022/03/11 07:46:10;;;;;;;;;;;4.80;99.90;;;;;;5094488;28;19977;-57
2022/03/11 07:48:36;;;;;;;;;;;4.90;99.90;;;;;;5091491;28;19924;-57
2022/03/11 07:51:02;;;;;;;;;;;4.90;99.90;;;;;;5092509;28;20262;-57
2022/03/11 07:53:27;;;;;;;;;;;5.00;99.90;;;;;;5094621;28;20026;-57
2022/03/11 07:55:53;;;;;;;;;;;5.00;99.90;;;;;;5094574;28;20389;-57
2022/03/11 07:58:21;;;;;;;;;;;5.10;99.90;;;;;;5095268;28;19917;-57
2022/03/11 08:00:53;;;;;;;;;;;5.20;99.90;;;;;;5095068;28;19915;-56
2022/03/11 08:03:19;;;;;;;;;;;5.20;99.90;;;;;;5095401;28;20393;-57
2022/03/11 08:05:44;;;;;;;;;;;5.30;99.90;;;;;;5094040;28;20012;-58
2022/03/11 08:08:10;;;;;;;;;;;5.40;99.90;;;;;;5094300;28;20018;-57
2022/03/11 08:10:37;;;;;;;;;;;5.50;99.90;;;;;;5094620;28;20450;-56
2022/03/11 08:13:02;;;;;;;;;;;5.60;99.90;;;;;;5094054;28;19915;-57
2022/03/11 08:15:28;;;;;;;;;;;5.70;99.90;;;;;;5094734;28;19909;-57
2022/03/11 08:17:54;;;;;;;;;;;5.80;99.90;;;;;;5094391;28;19908;-57
2022/03/11 08:20:19;;;;;;;;;;;5.80;99.90;;;;;;5094147;28;20267;-57
2022/03/11 08:22:45;;;;;;;;;;;5.90;99.90;;;;;;5094657;28;19915;-57
2022/03/11 08:25:10;;;;;;;;;;;6.00;99.90;;;;;;5094258;28;19908;-57
2022/03/11 08:27:36;;;;;;;;;;;6.00;99.90;;;;;;5093770;28;20068;-57
2022/03/11 08:30:03;;;;;;;;;;;6.10;99.90;;;;;;5094639;28;19912;-57
2022/03/11 08:32:28;;;;;;;;;;;6.10;99.90;;;;;;5094969;28;19993;-57
2022/03/11 08:34:55;;;;;;;;;;;6.20;99.90;;;;;;5093790;28;20378;-57
2022/03/11 08:37:21;;;;;;;;;;;6.30;99.90;;;;;;5085401;28;20375;-57
2022/03/11 08:39:46;;;;;;;;;;;6.30;99.90;;;;;;5094126;28;19915;-57
2022/03/11 08:42:11;;;;;;;;;;;6.40;99.90;;;;;;5088867;28;19926;-57
2022/03/11 08:44:37;;;;;;;;;;;6.40;99.90;;;;;;5094054;28;19969;-57
2022/03/11 08:47:03;;;;;;;;;;;6.50;99.90;;;;;;5093799;28;20325;-56
2022/03/11 08:49:28;;;;;;;;;;;6.60;99.90;;;;;;5093339;28;19922;-56
2022/03/11 08:51:54;;;;;;;;;;;6.60;99.90;;;;;;5093799;28;19916;-57
2022/03/11 08:54:20;;;;;;;;;;;6.70;99.90;;;;;;5091342;28;20382;-56
2022/03/11 08:56:45;;;;;;;;;;;6.80;99.90;;;;;;5093372;28;19915;-57
2022/03/11 08:59:12;;;;;;;;;;;6.80;99.90;;;;;;5092382;28;19916;-57
2022/03/11 09:01:37;;;;;;;;;;;6.90;99.90;;;;;;5086726;28;19957;-55
2022/03/11 09:04:03;;;;;;;;;;;7.00;99.90;;;;;;5092209;28;19920;-57
2022/03/11 09:06:30;;;;;;;;;;;7.10;99.90;;;;;;5093963;28;20003;-56
2022/03/11 09:08:56;;;;;;;;;;;7.20;99.00;;;;;;5090964;28;19939;-56
2022/03/11 09:11:21;;;;;;;;;;;7.30;99.90;;;;;;5091164;28;20290;-57
2022/03/11 09:13:49;;;;;;;;;;;7.40;99.90;;;;;;5092267;28;19955;-57
2022/03/11 09:16:14;;;;;;;;;;;7.40;98.80;;;;;;5091626;28;19912;-57
2022/03/11 09:18:40;;;;;;;;;;;7.50;95.30;;;;;;5092530;28;19908;-57
2022/03/11 09:21:05;;;;;;;;;;;7.50;94.90;;;;;;5093086;28;19908;-56
2022/03/11 09:23:31;;;;;;;;;;;7.50;94.00;;;;;;5094055;28;20058;-57
2022/03/11 09:25:56;;;;;;;;;;;7.60;94.10;;;;;;5094721;28;19908;-57
2022/03/11 09:28:22;;;;;;;;;;;7.70;97.10;;;;;;5094549;28;19912;-57
2022/03/11 09:30:48;;;;;;;;;;;7.90;98.00;;;;;;5093986;28;19945;-57
2022/03/11 09:33:13;;;;;;;;;;;7.90;96.40;;;;;;5085741;28;19971;-56
2022/03/11 09:35:39;;;;;;;;;;;8.00;95.10;;;;;;5094351;28;20310;-57
2022/03/11 09:38:04;;;;;;;;;;;8.00;94.60;;;;;;5093922;28;19908;-57
2022/03/11 09:40:31;;;;;;;;;;;8.10;92.70;;;;;;5094368;28;20396;-57
2022/03/11 09:42:57;;;;;;;;;;;8.30;93.70;;;;;;5094197;28;20420;-57
2022/03/11 09:45:25;;;;;;;;;;;8.30;94.90;;;;;;5093666;28;19925;-57
2022/03/11 09:47:51;;;;;;;;;;;8.40;91.00;;;;;;5094187;28;19908;-56
2022/03/11 09:50:17;;;;;;;;;;;8.50;92.60;;;;;;5094207;28;20376;-57
2022/03/11 09:52:44;;;;;;;;;;;8.60;90.60;;;;;;5086223;28;19986;-57
2022/03/11 09:55:10;;;;;;;;;;;8.70;92.30;;;;;;5073926;28;19913;-57
2022/03/11 09:57:36;;;;;;;;;;;8.70;86.70;;;;;;5073731;28;19915;-56
2022/03/11 10:00:04;;;;;;;;;;;8.80;86.70;;;;;;5073211;28;19913;-57
2022/03/11 10:02:29;;;;;;;;;;;8.80;79.80;;;;;;5073358;28;19985;-56
2022/03/11 10:04:58;;;;;;;;;;;8.90;74.20;;;;;;5072709;28;20345;-57
2022/03/11 10:07:28;;;;;;;;;;;9.00;84.90;;;;;;5072794;28;19954;-57
2022/03/11 10:09:53;;;;;;;;;;;9.10;77.40;;;;;;5073420;28;19963;-57
2022/03/11 10:12:29;;;;;;;;;;;9.10;73.40;;;;;;5073214;28;19909;-57
2022/03/11 10:14:59;;;;;;;;;;;9.20;67.90;;;;;;5073638;28;20438;-56
2022/03/11 10:17:25;;;;;;;;;;;9.30;90.00;;;;;;5073484;28;19943;-57
2022/03/11 10:19:54;;;;;;;;;;;9.50;86.20;;;;;;5072832;28;19912;-56
2022/03/11 10:22:23;;;;;;;;;;;9.60;80.60;;;;;;5076690;28;19908;-57
2022/03/11 10:24:48;;;;;;;;;;;9.70;79.90;;;;;;5093615;28;19916;-57
2022/03/11 10:27:14;;;;;;;;;;;9.80;81.50;;;;;;5092720;28;19908;-57
2022/03/11 10:29:39;;;;;;;;;;;9.90;68.00;;;;;;5093188;28;19916;-56
2022/03/11 10:32:06;;;;;;;;;;;9.90;70.60;;;;;;5093500;28;20038;-56
2022/03/11 10:34:32;;;;;;;;;;;10.00;65.00;;;;;;5092502;28;20011;-57
2022/03/11 10:37:01;;;;;;;;;;;10.00;76.00;;;;;;5093466;28;19990;-57
2022/03/11 10:39:27;;;;;;;;;;;10.20;79.80;;;;;;5093115;28;19909;-57
2022/03/11 10:41:56;;;;;;;;;;;10.30;73.10;;;;;;5092856;28;19908;-57
2022/03/11 10:44:22;;;;;;;;;;;10.40;73.50;;;;;;5085327;28;19918;-57
2022/03/11 10:46:48;;;;;;;;;;;10.50;71.90;;;;;;5093338;28;20371;-57
2022/03/11 10:49:31;;;;;;;;;;;10.60;70.20;;;;;;5092645;28;19916;-57
2022/03/11 10:51:58;;;;;;;;;;;10.60;73.70;;;;;;5093537;28;19915;-57
2022/03/11 10:54:24;;;;;;;;;;;10.70;71.40;;;;;;5074190;28;19912;-57
2022/03/11 10:56:49;;;;;;;;;;;10.70;67.70;;;;;;5072475;28;19916;-56
2022/03/11 10:59:21;;;;;;;;;;;10.80;67.30;;;;;;5071559;28;19912;-57
2022/03/11 11:01:46;;;;;;;;;;;10.80;68.50;;;;;;5072351;28;19912;-57
2022/03/11 11:04:13;;;;;;;;;;;11.00;67.00;;;;;;5073068;28;19965;-57
2022/03/11 11:06:39;;;;;;;;;;;11.00;70.80;;;;;;5072776;28;20004;-57
2022/03/11 11:09:05;;;;;;;;;;;11.00;68.10;;;;;;5072488;28;20490;-57
2022/03/11 11:11:31;;;;;;;;;;;11.10;69.00;;;;;;5072995;28;19908;-57
2022/03/11 11:13:58;;;;;;;;;;;11.10;65.20;;;;;;5072897;28;19908;-56
2022/03/11 11:16:24;;;;;;;;;;;11.20;67.30;;;;;;5074740;28;19916;-57
2022/03/11 11:18:51;;;;;;;;;;;11.20;65.20;;;;;;5076574;28;19999;-57
2022/03/11 11:21:18;;;;;;;;;;;11.40;63.30;;;;;;5076369;28;19908;-56
2022/03/11 11:23:44;;;;;;;;;;;11.40;65.50;;;;;;5091268;28;19916;-56
2022/03/11 11:26:10;;;;;;;;;;;11.50;65.30;;;;;;5094573;28;19999;-56
2022/03/11 11:28:37;;;;;;;;;;;11.60;61.50;;;;;;5096386;28;19912;-56
2022/03/11 11:31:02;;;;;;;;;;;11.60;64.80;;;;;;5095641;28;19931;-57
2022/03/11 11:33:28;;;;;;;;;;;11.70;62.00;;;;;;5094987;28;20363;-57
2022/03/11 11:35:56;;;;;;;;;;;11.70;60.80;;;;;;5096658;28;19994;-56
2022/03/11 11:38:30;;;;;;;;;;;11.80;61.10;;;;;;5082823;28;19919;-57
2022/03/11 11:40:56;;;;;;;;;;;12.00;64.20;;;;;;5113610;28;19961;-57
2022/03/11 11:43:26;;;;;;;;;;;12.10;62.50;;;;;;5116948;28;19912;-56
2022/03/11 11:45:51;;;;;;;;;;;12.20;60.80;;;;;;5116149;28;19976;-56
2022/03/11 11:48:32;;;;;;;;;;;12.30;61.30;;;;;;5116449;28;20331;-56
2022/03/11 11:50:58;;;;;;;;;;;12.40;62.20;;;;;;5116389;28;19908;-57
2022/03/11 11:53:33;;;;;;;;;;;12.40;56.00;;;;;;5116760;28;20370;-57
2022/03/11 11:55:59;;;;;;;;;;;12.60;58.50;;;;;;5116827;28;20403;-57
2022/03/11 11:58:25;;;;;;;;;;;12.70;59.70;;;;;;5116008;28;19908;-57
2022/03/11 12:00:55;;;;;;;;;;;12.70;57.50;;;;;;5116632;28;19915;-57
2022/03/11 12:03:20;;;;;;;;;;;12.90;58.10;;;;;;5116581;28;19965;-56
2022/03/11 12:05:48;;;;;;;;;;;12.90;57.70;;;;;;5115966;28;19912;-57
2022/03/11 12:08:32;;;;;;;;;;;13.00;59.00;;;;;;5113685;28;19911;-57
2022/03/11 12:10:58;;;;;;;;;;;13.10;59.70;;;;;;5083024;28;19916;-56
2022/03/11 12:13:36;;;;;;;;;;;13.10;57.20;;;;;;5087060;28;19943;-57
2022/03/11 12:16:03;;;;;;;;;;;13.20;57.30;;;;;;5094555;28;20008;-57
2022/03/11 12:18:42;;;;;;;;;;;13.20;57.30;;;;;;5112047;28;19912;-57
2022/03/11 12:21:09;;;;;;;;;;;13.30;56.20;;;;;;5095573;28;19912;-57
2022/03/11 12:23:36;;;;;;;;;;;13.30;53.90;;;;;;5076080;28;20256;-57
2022/03/11 12:26:09;;;;;;;;;;;13.40;56.20;;;;;;5074420;28;19924;-57
2022/03/11 12:28:41;;;;;;;;;;;13.40;53.90;;;;;;5076295;28;20040;-57
2022/03/11 12:31:14;;;;;;;;;;;13.50;54.60;;;;;;5075296;28;19913;-56
2022/03/11 12:33:41;;;;;;;;;;;13.60;56.20;;;;;;5074327;28;20249;-56
2022/03/11 12:36:08;;;;;;;;;;;13.70;54.30;;;;;;5075244;28;20359;-57
2022/03/11 12:38:35;;;;;;;;;;;13.80;55.30;;;;;;5074994;28;19954;-57
2022/03/11 12:41:03;;;;;;;;;;;13.80;54.40;;;;;;5074867;28;19908;-56
2022/03/11 12:43:29;;;;;;;;;;;13.90;53.70;;;;;;5075018;28;20001;-56
2022/03/11 12:45:55;;;;;;;;;;;14.00;55.60;;;;;;5075039;28;19962;-56
2022/03/11 12:48:24;;;;;;;;;;;14.00;51.70;;;;;;5075150;28;20023;-56
2022/03/11 12:50:50;;;;;;;;;;;14.10;53.30;;;;;;5075029;28;20003;-56
2022/03/11 12:53:16;;;;;;;;;;;14.10;52.60;;;;;;5074807;28;19978;-57
2022/03/11 12:55:49;;;;;;;;;;;14.20;51.90;;;;;;5074172;28;19918;-56
2022/03/11 12:58:16;;;;;;;;;;;14.30;51.20;;;;;;5074783;28;19962;-56
2022/03/11 13:00:43;;;;;;;;;;;14.30;53.40;;;;;;5074773;28;19913;-56
2022/03/11 13:03:13;;;;;;;;;;;14.30;50.60;;;;;;5074279;28;19909;-56
2022/03/11 13:05:41;;;;;;;;;;;14.40;50.70;;;;;;5074469;28;19961;-56
2022/03/11 13:08:15;;;;;;;;;;;14.50;54.30;;;;;;5076433;28;19924;-56
2022/03/11 13:10:41;;;;;;;;;;;14.60;52.90;;;;;;5092118;28;19919;-56
2022/03/11 13:13:07;;;;;;;;;;;14.60;50.00;;;;;;5094803;28;19912;-56
2022/03/11 13:15:33;;;;;;;;;;;14.70;50.90;;;;;;5094215;28;19967;-57
2022/03/11 13:17:58;;;;;;;;;;;14.80;52.00;;;;;;5094206;28;19912;-56
2022/03/11 13:20:28;;;;;;;;;;;14.80;50.80;;;;;;5094607;28;20408;-57
2022/03/11 13:22:54;;;;;;;;;;;14.90;51.90;;;;;;5094267;28;19908;-56
2022/03/11 13:25:38;;;;;;;;;;;14.90;50.30;;;;;;5094550;28;19915;-56
2022/03/11 13:28:04;;;;;;;;;;;15.00;49.60;;;;;;5094320;28;19908;-56
2022/03/11 13:30:37;;;;;;;;;;;15.20;49.30;;;;;;5093672;28;20275;-56
2022/03/11 13:33:16;;;;;;;;;;;15.50;49.10;;;;;;5094280;28;19950;-56
2022/03/11 13:35:43;;;;;;;;;;;15.60;46.30;;;;;;5094519;28;19916;-56
2022/03/11 13:38:08;;;;;;;;;;;15.70;43.50;;;;;;5090381;28;19943;-55
2022/03/11 13:40:33;;;;;;;;;;;15.60;42.50;;;;;;5073946;28;19913;-56
2022/03/11 13:43:00;;;;;;;;;;;15.70;44.90;;;;;;5073764;28;19915;-56
2022/03/11 13:45:27;;;;;;;;;;;15.80;48.00;;;;;;5073309;28;20008;-55
2022/03/11 13:48:05;;;;;;;;;;;15.90;47.20;;;;;;5073806;28;20374;-56
2022/03/11 13:50:31;;;;;;;;;;;16.10;47.70;;;;;;5073312;28;20040;-56
2022/03/11 13:52:58;;;;;;;;;;;16.30;47.10;;;;;;5073713;28;20356;-56
2022/03/11 13:55:34;;;;;;;;;;;16.50;48.90;;;;;;5073733;28;19943;-56
2022/03/11 13:58:13;;;;;;;;;;;16.50;41.40;;;;;;5076367;28;20003;-56
2022/03/11 14:00:38;;;;;;;;;;;16.60;43.10;;;;;;5093649;28;19908;-56
2022/03/11 14:03:13;;;;;;;;;;;16.80;46.80;;;;;;5075002;28;19908;-56
2022/03/11 14:05:40;;;;;;;;;;;16.80;42.60;;;;;;5093158;28;19908;-56
2022/03/11 14:08:05;;;;;;;;;;;16.90;41.40;;;;;;5093790;28;19947;-56
2022/03/11 14:10:39;;;;;;;;;;;16.80;40.00;;;;;;5093649;28;19962;-56
2022/03/11 14:13:06;;;;;;;;;;;16.90;41.60;;;;;;5093236;28;20003;-56
2022/03/11 14:15:32;;;;;;;;;;;17.00;42.40;;;;;;5093637;28;20320;-55
2022/03/11 14:17:58;;;;;;;;;;;17.20;42.30;;;;;;5087645;28;19999;-56
2022/03/11 14:20:23;;;;;;;;;;;17.10;43.00;;;;;;5072761;28;19918;-55
2022/03/11 14:22:48;;;;;;;;;;;17.20;41.40;;;;;;5073245;28;20417;-56